createdAt,value
2023-05-24T00:05:01.534Z,15.30
2023-05-24T00:10:06.916Z,15.38
2023-05-24T00:15:10.064Z,13.97
2023-05-24T00:20:15.012Z,13.98
2023-05-24T00:25:18.746Z,12.88
2023-05-24T00:30:22.481Z,14.68
2023-05-24T00:35:25.463Z,11.75
2023-05-24T00:40:29.406Z,14.03
2023-05-24T00:45:33.677Z,13.10
2023-05-24T00:50:38.648Z,15.57
2023-05-24T00:55:41.468Z,11.95
2023-05-24T01:00:45.911Z,13.07
2023-05-24T01:05:48.738Z,12.53
2023-05-24T01:11:05.941Z,12.43
2023-05-24T01:16:13.138Z,13.65
2023-05-24T01:22:04.004Z,11.15
2023-05-24T01:27:15.637Z,13.10
2023-05-24T01:32:19.309Z,11.83
2023-05-24T01:37:22.138Z,12.90
2023-05-24T01:42:29.827Z,12.20
2023-05-24T01:48:01.773Z,11.57
2023-05-24T01:53:09.632Z,12.30
2023-05-24T01:58:16.668Z,15.30
2023-05-24T02:03:20.304Z,14.60
2023-05-24T02:08:23.366Z,14.15
2023-05-24T02:13:27.725Z,16.17
2023-05-24T02:18:35.160Z,14.85
2023-05-24T02:23:38.049Z,20.27
2023-05-24T02:28:40.940Z,17.30
2023-05-24T02:33:43.899Z,20.13
2023-05-24T02:38:46.922Z,22.85
2023-05-24T02:43:49.695Z,29.23
2023-05-24T02:48:52.424Z,25.97
2023-05-24T02:53:55.154Z,29.13
2023-05-24T02:58:58.402Z,30.48
2023-05-24T03:04:02.333Z,34.55
2023-05-24T03:09:06.237Z,38.08
2023-05-24T03:14:11.296Z,35.43
2023-05-24T03:19:19.583Z,36.58
2023-05-24T03:24:23.196Z,39.50
2023-05-24T03:29:26.347Z,38.10
2023-05-24T03:34:30.717Z,38.45
2023-05-24T03:39:33.430Z,35.50
2023-05-24T03:44:52.764Z,38.47
2023-05-24T03:49:55.640Z,43.40
2023-05-24T03:54:58.840Z,37.78
2023-05-24T04:00:02.288Z,38.92
2023-05-24T04:05:10.455Z,44.50
2023-05-24T04:10:14.392Z,39.25
2023-05-24T04:15:18.257Z,37.85
2023-05-24T04:20:25.972Z,38.45
2023-05-24T04:25:29.916Z,31.42
2023-05-24T04:30:33.110Z,35.13
2023-05-24T04:35:36.289Z,39.78
2023-05-24T04:40:40.655Z,42.53
2023-05-24T04:45:43.799Z,44.95
2023-05-24T04:50:46.647Z,45.80
2023-05-24T04:55:50.594Z,43.60
2023-05-24T05:00:53.392Z,44.13
2023-05-24T05:05:56.091Z,44.42
2023-05-24T05:10:59.124Z,54.33
2023-05-24T05:16:03.175Z,44.42
2023-05-24T05:21:06.951Z,52.77
2023-05-24T05:26:09.984Z,54.33
2023-05-24T05:31:12.712Z,55.10
2023-05-24T05:36:15.846Z,55.17
2023-05-24T05:41:18.875Z,54.85
2023-05-24T05:46:22.662Z,45.30
2023-05-24T05:51:25.668Z,53.42
2023-05-24T05:56:28.980Z,46.33
2023-05-24T06:01:31.746Z,52.65
2023-05-24T06:06:34.601Z,52.08
2023-05-24T06:11:37.674Z,50.50
2023-05-24T06:16:44.006Z,50.92
2023-05-24T06:21:48.686Z,48.80
2023-05-24T06:26:53.596Z,43.03
2023-05-24T06:31:56.607Z,39.22
2023-05-24T06:36:59.858Z,39.03
2023-05-24T06:42:02.698Z,40.10
2023-05-24T06:47:12.243Z,44.13
2023-05-24T06:52:15.182Z,40.00
2023-05-24T06:57:17.961Z,35.72
2023-05-24T07:02:26.778Z,52.37
2023-05-24T07:07:29.668Z,45.40
2023-05-24T07:12:33.234Z,36.45
2023-05-24T07:17:36.451Z,34.42
2023-05-24T07:22:39.444Z,32.47
2023-05-24T07:27:44.210Z,25.77
2023-05-24T07:32:47.453Z,33.40
2023-05-24T07:37:50.603Z,32.58
2023-05-24T07:42:53.498Z,30.10
2023-05-24T07:47:57.291Z,33.75
2023-05-24T07:53:00.170Z,38.20
2023-05-24T07:58:03.160Z,37.08
2023-05-24T08:03:08.012Z,51.40
2023-05-24T08:08:11.476Z,185.10
2023-05-24T08:13:14.425Z,53.55
2023-05-24T08:18:17.580Z,30.80
2023-05-24T08:23:20.498Z,30.77
2023-05-24T08:28:23.745Z,31.80
2023-05-24T08:33:26.734Z,23.48
2023-05-24T08:38:29.824Z,23.73
2023-05-24T08:43:33.640Z,22.43
2023-05-24T08:48:47.733Z,25.98
2023-05-24T08:53:52.565Z,26.80
2023-05-24T08:58:56.268Z,27.05
2023-05-24T09:04:01.024Z,31.80
2023-05-24T09:09:05.142Z,29.03
2023-05-24T09:14:08.865Z,39.47
2023-05-24T09:19:12.254Z,29.42
2023-05-24T09:24:15.952Z,23.58
2023-05-24T09:29:24.063Z,23.63
2023-05-24T09:34:27.407Z,18.83
2023-05-24T09:39:32.352Z,18.10
2023-05-24T09:44:35.196Z,24.55
2023-05-24T09:49:38.575Z,28.90
2023-05-24T09:54:42.581Z,30.08
2023-05-24T09:59:45.788Z,27.57
2023-05-24T10:04:49.040Z,22.90
2023-05-24T10:09:52.156Z,19.05
2023-05-24T10:14:57.900Z,22.20
2023-05-24T10:20:00.815Z,18.77
2023-05-24T10:25:06.861Z,18.60
2023-05-24T10:30:16.587Z,21.85
2023-05-24T10:35:20.630Z,26.02
2023-05-24T10:40:27.282Z,21.17
2023-05-24T10:45:33.100Z,22.30
2023-05-24T10:50:36.715Z,22.13
2023-05-24T10:55:55.943Z,22.27
2023-05-24T11:00:59.142Z,21.52
2023-05-24T11:06:02.224Z,24.02
2023-05-24T11:11:25.738Z,22.63
2023-05-24T11:16:38.412Z,21.07
2023-05-24T11:21:45.051Z,23.65
2023-05-24T11:26:48.125Z,18.67
2023-05-24T11:31:57.957Z,22.42
2023-05-24T11:37:02.877Z,25.55
2023-05-24T11:42:06.946Z,24.90
2023-05-24T11:47:10.036Z,30.33
2023-05-24T11:52:13.320Z,27.95
2023-05-24T11:57:16.745Z,17.70
2023-05-24T12:02:20.184Z,26.05
2023-05-24T12:07:24.385Z,25.50
2023-05-24T12:12:34.132Z,23.65
2023-05-24T12:17:50.418Z,21.42
2023-05-24T12:22:54.748Z,22.92
2023-05-24T12:27:57.670Z,20.73
2023-05-24T12:33:00.958Z,23.43
2023-05-24T12:38:04.318Z,25.25
2023-05-24T12:43:07.286Z,24.00
2023-05-24T12:48:10.198Z,21.73
2023-05-24T12:53:13.327Z,21.30
2023-05-24T12:58:17.797Z,21.70
2023-05-24T13:03:20.620Z,23.70
2023-05-24T13:08:23.649Z,25.00
2023-05-24T13:13:26.709Z,20.13
2023-05-24T13:18:30.830Z,19.88
2023-05-24T13:23:35.470Z,20.30
2023-05-24T13:28:45.653Z,21.25
2023-05-24T13:33:56.945Z,23.30
2023-05-24T13:44:07.570Z,20.98
2023-05-24T13:49:11.680Z,22.93
2023-05-24T13:54:14.757Z,21.63
2023-05-24T13:59:18.063Z,20.35
2023-05-24T14:04:20.922Z,18.23
2023-05-24T14:09:24.107Z,17.77
2023-05-24T14:19:33.844Z,21.30
2023-05-24T14:24:36.800Z,18.50
2023-05-24T14:29:39.706Z,23.25
2023-05-24T14:34:42.539Z,22.92
2023-05-24T14:39:45.656Z,20.47
2023-05-24T14:44:48.478Z,17.48
2023-05-24T14:49:51.232Z,23.30
2023-05-24T14:54:54.759Z,21.15
2023-05-24T14:59:57.813Z,21.60
2023-05-24T15:05:01.266Z,22.70
2023-05-24T15:10:04.398Z,24.88
2023-05-24T15:15:08.117Z,24.42
2023-05-24T15:20:11.478Z,22.85
2023-05-24T15:25:14.645Z,22.77
2023-05-24T15:30:19.862Z,20.23
2023-05-24T15:35:22.775Z,18.08
2023-05-24T15:40:25.982Z,18.98
2023-05-24T15:45:28.858Z,18.52
2023-05-24T15:50:53.987Z,14.98
2023-05-24T15:55:57.806Z,18.60
2023-05-24T16:01:00.828Z,21.08
2023-05-24T16:06:04.817Z,20.35
2023-05-24T16:11:09.067Z,22.55
2023-05-24T16:16:12.432Z,19.48
2023-05-24T16:21:15.299Z,19.40
2023-05-24T16:26:18.294Z,18.58
2023-05-24T16:31:21.203Z,18.85
2023-05-24T16:36:25.036Z,22.60
2023-05-24T16:41:34.925Z,21.50
2023-05-24T16:46:38.101Z,23.00
2023-05-24T16:51:41.390Z,18.83
2023-05-24T16:56:45.257Z,19.83
2023-05-24T17:01:50.794Z,20.52
2023-05-24T17:06:53.742Z,18.20
2023-05-24T17:11:56.701Z,19.47
2023-05-24T17:16:59.537Z,26.58
2023-05-24T17:22:02.572Z,19.88
2023-05-24T17:27:06.007Z,21.10
2023-05-24T17:32:09.093Z,24.25
2023-05-24T17:37:12.070Z,20.70
2023-05-24T17:42:15.032Z,20.10
2023-05-24T17:47:18.016Z,21.73
2023-05-24T17:52:21.063Z,20.83
2023-05-24T17:57:24.168Z,21.63
2023-05-24T18:02:27.097Z,17.67
2023-05-24T18:07:30.593Z,16.85
2023-05-24T18:12:33.513Z,22.45
2023-05-24T18:17:36.895Z,21.88
2023-05-24T18:22:41.794Z,20.92
2023-05-24T18:27:44.711Z,15.67
2023-05-24T18:33:03.400Z,15.85
2023-05-24T18:38:07.710Z,19.02
2023-05-24T18:43:10.539Z,19.52
2023-05-24T18:48:13.444Z,16.45
2023-05-24T18:53:16.298Z,20.87
2023-05-24T18:58:19.318Z,18.70
2023-05-24T19:03:22.551Z,22.33
2023-05-24T19:08:25.720Z,20.42
2023-05-24T19:13:28.901Z,19.17
2023-05-24T19:18:31.821Z,19.60
2023-05-24T19:23:34.834Z,21.52
2023-05-24T19:28:40.625Z,21.67
2023-05-24T19:33:59.322Z,19.58
2023-05-24T19:39:03.241Z,20.63
2023-05-24T19:44:06.257Z,20.63
2023-05-24T19:49:09.162Z,26.63
2023-05-24T19:54:13.195Z,23.48
2023-05-24T19:59:16.167Z,22.45
2023-05-24T20:04:19.303Z,22.63
2023-05-24T20:09:22.210Z,22.13
2023-05-24T20:14:25.082Z,22.60
2023-05-24T20:19:28.700Z,23.83
2023-05-24T20:24:31.812Z,23.05
2023-05-24T20:29:34.674Z,28.83
2023-05-24T20:34:37.610Z,24.20
2023-05-24T20:39:40.375Z,22.73
2023-05-24T20:44:43.230Z,21.92
2023-05-24T20:49:46.648Z,17.63
2023-05-24T20:54:49.941Z,25.27
2023-05-24T20:59:52.835Z,23.60
2023-05-24T21:04:56.510Z,25.17
2023-05-24T21:09:59.411Z,26.73
2023-05-24T21:15:02.522Z,23.73
2023-05-24T21:20:06.115Z,17.75
2023-05-24T21:25:09.516Z,22.20
2023-05-24T21:30:12.905Z,19.73
2023-05-24T21:35:16.385Z,21.77
2023-05-24T21:40:19.187Z,20.80
2023-05-24T21:45:22.069Z,16.75
2023-05-24T21:50:24.998Z,28.80
2023-05-24T21:55:29.253Z,23.77
2023-05-24T22:00:32.152Z,27.20
2023-05-24T22:05:34.927Z,24.33
2023-05-24T22:10:37.825Z,29.45
2023-05-24T22:15:41.071Z,29.47
2023-05-24T22:20:47.977Z,26.83
2023-05-24T22:25:50.845Z,26.60
2023-05-24T22:30:53.598Z,26.65
2023-05-24T22:35:57.061Z,26.45
2023-05-24T22:40:59.883Z,27.60
2023-05-24T22:46:02.984Z,26.17
2023-05-24T22:51:06.060Z,29.58
2023-05-24T22:56:10.731Z,28.27
2023-05-24T23:01:13.757Z,29.20
2023-05-24T23:06:17.832Z,26.47
2023-05-24T23:11:20.673Z,29.63
2023-05-24T23:16:23.739Z,29.45
2023-05-24T23:21:26.869Z,27.73
2023-05-24T23:26:29.664Z,27.45
2023-05-24T23:31:32.672Z,24.43
2023-05-24T23:36:36.834Z,22.35
2023-05-24T23:41:39.656Z,21.67
2023-05-24T23:46:42.841Z,23.00
2023-05-24T23:51:45.894Z,24.10
2023-05-24T23:56:49.161Z,19.17
